Time;durP1;ratioP1;P1;durP2;ratioP2;P2;SDS_P1;SDS_P2;PMS_P1;PMS_P2;Temp;Humidity;BMP_temperature;BMP_pressure;BME280_temperature;BME280_humidity;BME280_pressure;Samples;Min_cycle;Max_cycle;Signal;HPM_P1;HPM_P2
2021/12/01 00:01:14;;;;;;;5.30;1.60;;;4.70;99.90;;;;;;5066225;23;20479;-76
2021/12/01 00:03:16;;;;;;;4.87;1.30;;;4.70;99.90;;;;;;5068056;23;20503;-78
2021/12/01 00:05:18;;;;;;;3.23;1.20;;;4.70;99.90;;;;;;5067677;23;20499;-77
2021/12/01 00:07:20;;;;;;;5.17;1.30;;;4.70;99.90;;;;;;5067598;23;20503;-76
2021/12/01 00:09:22;;;;;;;2.23;1.00;;;4.70;99.90;;;;;;5067095;23;20620;-75
2021/12/01 00:11:24;;;;;;;2.57;1.10;;;4.70;99.90;;;;;;5066643;23;20503;-76
2021/12/01 00:13:28;;;;;;;3.83;1.20;;;4.70;99.90;;;;;;5068673;23;20463;-75
2021/12/01 00:15:30;;;;;;;2.77;0.80;;;4.70;99.90;;;;;;5067670;23;20424;-75
2021/12/01 00:17:32;;;;;;;5.57;1.10;;;4.70;99.90;;;;;;5065766;23;20424;-77
2021/12/01 00:19:34;;;;;;;1.53;0.80;;;4.70;99.90;;;;;;5068323;23;20456;-76
2021/12/01 00:21:36;;;;;;;4.37;1.00;;;4.70;99.90;;;;;;5067574;23;20499;-76
2021/12/01 00:23:38;;;;;;;2.93;0.67;;;4.80;99.90;;;;;;5067475;23;20632;-76
2021/12/01 00:25:42;;;;;;;3.20;0.97;;;4.70;99.90;;;;;;5067509;23;20459;-76
2021/12/01 00:27:44;;;;;;;5.70;1.20;;;4.70;99.90;;;;;;5067642;23;20964;-76
2021/12/01 00:29:49;;;;;;;2.07;0.80;;;4.70;99.90;;;;;;5067849;23;20428;-76
2021/12/01 00:31:51;;;;;;;3.40;1.13;;;4.70;99.90;;;;;;5066869;23;20443;-77
2021/12/01 00:33:53;;;;;;;1.33;0.77;;;4.70;99.90;;;;;;5067949;23;20495;-76
2021/12/01 00:35:57;;;;;;;3.67;1.30;;;4.80;99.90;;;;;;5067004;23;20912;-76
2021/12/01 00:37:59;;;;;;;2.53;1.10;;;4.70;99.90;;;;;;5067377;23;20440;-75
2021/12/01 00:40:01;;;;;;;3.87;1.37;;;4.80;99.90;;;;;;5066370;23;20421;-75
2021/12/01 00:42:03;;;;;;;4.90;1.20;;;4.70;99.90;;;;;;5066178;23;20462;-75
2021/12/01 00:44:07;;;;;;;3.37;1.23;;;4.70;99.90;;;;;;5066531;23;20428;-75
2021/12/01 00:46:13;;;;;;;5.40;1.50;;;4.70;99.90;;;;;;5066689;23;20427;-74
2021/12/01 00:48:15;;;;;;;3.97;1.20;;;4.70;99.90;;;;;;5067480;23;20412;-76
2021/12/01 00:50:20;;;;;;;3.53;1.30;;;4.70;99.90;;;;;;5066443;23;20448;-76
2021/12/01 00:52:22;;;;;;;4.40;1.37;;;4.70;99.90;;;;;;5067190;23;20494;-77
2021/12/01 00:54:24;;;;;;;3.73;1.33;;;4.70;99.90;;;;;;5068304;23;20443;-77
2021/12/01 00:56:26;;;;;;;5.80;1.50;;;4.70;99.90;;;;;;5067321;23;20498;-77
2021/12/01 00:58:28;;;;;;;3.83;1.20;;;4.80;99.90;;;;;;5067633;23;20502;-77
2021/12/01 01:00:31;;;;;;;3.17;1.73;;;4.80;99.90;;;;;;5066615;23;20499;-77
2021/12/01 01:02:35;;;;;;;4.47;1.20;;;4.70;99.90;;;;;;5067962;23;20531;-77
2021/12/01 01:04:37;;;;;;;4.17;1.53;;;4.70;99.90;;;;;;5067443;23;20993;-75
2021/12/01 01:06:39;;;;;;;3.20;1.03;;;4.70;99.90;;;;;;5066691;23;20806;-76
2021/12/01 01:08:42;;;;;;;5.10;1.10;;;4.70;99.90;;;;;;5067246;23;20480;-78
2021/12/01 01:18:05;;;;;;;2.33;0.97;;;4.70;99.90;;;;;;5067923;23;20456;-76
2021/12/01 01:20:10;;;;;;;4.60;1.13;;;4.70;99.90;;;;;;5066665;23;20707;-75
2021/12/01 01:22:12;;;;;;;5.60;1.10;;;4.70;99.90;;;;;;5066063;23;20539;-76
2021/12/01 01:24:15;;;;;;;4.77;1.30;;;4.60;99.90;;;;;;5067980;23;20804;-77
2021/12/01 01:26:19;;;;;;;4.70;1.30;;;4.60;99.90;;;;;;5066854;23;20427;-78
2021/12/01 01:28:21;;;;;;;3.27;1.00;;;4.60;99.90;;;;;;5067181;23;20416;-76
2021/12/01 01:30:23;;;;;;;4.27;1.40;;;4.70;99.90;;;;;;5066469;23;20804;-75
2021/12/01 01:32:25;;;;;;;4.03;1.20;;;4.60;99.90;;;;;;5066861;23;20511;-79
2021/12/01 01:34:30;;;;;;;2.00;1.10;;;4.60;99.90;;;;;;5067867;23;20459;-76
2021/12/01 01:36:32;;;;;;;4.93;1.30;;;4.60;99.90;;;;;;5067164;23;20431;-76
2021/12/01 01:38:34;;;;;;;3.60;1.27;;;4.70;99.90;;;;;;5067077;23;20416;-77
2021/12/01 01:40:37;;;;;;;2.50;0.90;;;4.70;99.90;;;;;;5066853;23;21003;-76
2021/12/01 01:42:39;;;;;;;4.53;1.30;;;4.70;99.90;;;;;;5066488;23;20455;-77
2021/12/01 01:44:41;;;;;;;1.97;0.90;;;4.70;99.90;;;;;;5067808;23;20455;-77
2021/12/01 01:46:43;;;;;;;4.63;1.20;;;4.70;99.90;;;;;;5066552;23;20443;-75
2021/12/01 01:48:47;;;;;;;4.33;1.30;;;4.70;99.90;;;;;;5066817;23;20900;-79
2021/12/01 01:50:51;;;;;;;2.57;1.67;;;4.70;99.90;;;;;;5067356;23;20420;-79
2021/12/01 01:52:52;;;;;;;4.77;1.60;;;4.70;99.90;;;;;;5068093;23;20514;-79
2021/12/01 01:54:55;;;;;;;3.50;1.40;;;4.70;99.90;;;;;;5067773;23;20416;-78
2021/12/01 01:56:56;;;;;;;5.17;1.67;;;4.70;99.90;;;;;;5069149;23;20452;-78
2021/12/01 01:58:58;;;;;;;2.73;1.50;;;4.70;99.90;;;;;;5068871;23;20947;-78
2021/12/01 02:01:07;;;;;;;4.10;1.80;;;4.70;99.90;;;;;;5068803;23;20455;-78
2021/12/01 02:03:11;;;;;;;4.33;1.70;;;4.70;99.90;;;;;;5069502;23;20455;-78
2021/12/01 02:05:13;;;;;;;4.33;1.80;;;4.70;99.90;;;;;;5067633;23;20459;-77
2021/12/01 02:07:16;;;;;;;4.30;1.77;;;4.70;99.90;;;;;;5068005;23;20506;-78
2021/12/01 02:09:21;;;;;;;7.37;2.10;;;4.70;99.90;;;;;;5068261;23;20499;-78
2021/12/01 02:11:24;;;;;;;3.70;1.97;;;4.70;99.90;;;;;;5069434;23;20408;-78
2021/12/01 02:13:27;;;;;;;5.77;2.33;;;4.70;99.90;;;;;;5068200;23;20499;-79
2021/12/01 02:15:29;;;;;;;3.87;2.10;;;4.80;99.90;;;;;;5068590;23;20503;-79
2021/12/01 02:17:31;;;;;;;4.93;2.13;;;4.70;99.90;;;;;;5069706;23;20420;-78
2021/12/01 02:19:38;;;;;;;4.37;2.40;;;4.80;99.90;;;;;;5068592;23;20459;-77
2021/12/01 02:23:50;;;;;;;5.57;2.40;;;4.80;99.90;;;;;;5118661;23;20422;-82
2021/12/01 02:25:52;;;;;;;6.37;2.43;;;4.80;99.90;;;;;;5117686;23;20379;-82
2021/12/01 02:27:54;;;;;;;4.17;2.40;;;4.80;99.90;;;;;;5117769;23;20497;-82
2021/12/01 02:29:56;;;;;;;4.57;2.40;;;4.80;99.90;;;;;;5117940;23;20421;-82
2021/12/01 02:31:58;;;;;;;4.93;2.37;;;4.80;99.90;;;;;;5116797;23;20501;-82
2021/12/01 02:34:01;;;;;;;4.77;2.43;;;4.90;99.90;;;;;;5118474;23;20441;-82
2021/12/01 02:36:03;;;;;;;3.93;2.50;;;4.80;99.90;;;;;;5116990;23;20468;-82
2021/12/01 02:38:06;;;;;;;3.47;2.40;;;4.90;99.90;;;;;;5117298;23;20418;-82
2021/12/01 02:40:11;;;;;;;3.13;2.20;;;4.90;99.90;;;;;;5117150;23;20481;-82
2021/12/01 02:42:19;;;;;;;3.47;2.30;;;4.90;99.90;;;;;;5117565;23;20505;-82
2021/12/01 02:44:21;;;;;;;3.70;2.50;;;4.90;99.90;;;;;;5117561;23;20786;-82
2021/12/01 02:46:24;;;;;;;4.87;2.40;;;4.90;99.90;;;;;;5116962;23;20445;-82
2021/12/01 02:48:26;;;;;;;4.53;2.37;;;4.90;99.90;;;;;;5118680;23;20469;-82
2021/12/01 02:50:28;;;;;;;3.73;2.27;;;4.90;99.90;;;;;;5117071;23;20960;-82
2021/12/01 02:52:35;;;;;;;3.77;1.97;;;4.90;99.90;;;;;;5117557;23;20521;-82
2021/12/01 02:54:36;;;;;;;4.03;2.00;;;4.90;99.90;;;;;;5118368;23;20390;-82
2021/12/01 02:56:45;;;;;;;4.57;2.30;;;5.00;99.90;;;;;;5118330;23;20446;-82
2021/12/01 02:58:47;;;;;;;3.70;1.80;;;5.00;99.90;;;;;;5119146;23;20901;-82
2021/12/01 03:00:52;;;;;;;2.97;1.90;;;5.10;99.90;;;;;;5117681;23;20437;-82
2021/12/01 03:02:56;;;;;;;3.47;1.80;;;5.00;99.90;;;;;;5118454;23;20493;-82
2021/12/01 03:04:58;;;;;;;4.60;1.90;;;4.90;99.90;;;;;;5118954;23;20415;-82
2021/12/01 03:07:00;;;;;;;4.57;2.10;;;4.90;99.90;;;;;;5117868;23;20498;-83
2021/12/01 03:09:06;;;;;;;4.20;2.10;;;5.00;99.90;;;;;;5118795;23;20427;-83
2021/12/01 03:11:09;;;;;;;2.60;1.70;;;5.00;99.90;;;;;;5118279;23;20424;-83
2021/12/01 03:13:13;;;;;;;3.13;2.07;;;5.00;99.90;;;;;;5119033;23;20958;-82
2021/12/01 03:15:19;;;;;;;3.23;2.17;;;5.00;99.90;;;;;;5118712;23;20940;-83
2021/12/01 03:17:21;;;;;;;3.47;2.10;;;5.10;99.90;;;;;;5117845;23;20410;-83
2021/12/01 03:19:23;;;;;;;3.90;2.30;;;5.10;99.90;;;;;;5119425;23;20406;-82
2021/12/01 03:21:25;;;;;;;3.20;2.33;;;5.00;99.90;;;;;;5118248;23;20509;-83
2021/12/01 03:23:27;;;;;;;3.60;2.27;;;5.00;99.90;;;;;;5118484;23;20533;-83
2021/12/01 03:25:29;;;;;;;3.87;2.50;;;5.00;99.90;;;;;;5118775;23;20446;-83
2021/12/01 03:27:31;;;;;;;3.37;2.23;;;5.10;99.90;;;;;;5119341;23;20430;-82
2021/12/01 03:29:35;;;;;;;3.73;2.60;;;5.10;99.90;;;;;;5119057;23;21004;-83
2021/12/01 03:31:37;;;;;;;4.17;2.17;;;5.00;99.90;;;;;;5118968;23;20435;-83
2021/12/01 03:33:39;;;;;;;3.30;2.20;;;5.00;99.90;;;;;;5119819;23;20494;-82
2021/12/01 03:35:44;;;;;;;3.63;2.43;;;5.10;99.90;;;;;;5119898;23;20928;-83
2021/12/01 03:37:48;;;;;;;3.40;2.00;;;5.00;99.90;;;;;;5119139;23;20426;-82
2021/12/01 03:39:50;;;;;;;3.57;2.30;;;5.10;99.90;;;;;;5119617;23;20400;-82
2021/12/01 03:41:52;;;;;;;3.43;2.03;;;5.10;99.90;;;;;;5120173;23;20747;-83
2021/12/01 03:43:54;;;;;;;3.43;2.17;;;5.10;99.90;;;;;;5120281;23;20506;-82
2021/12/01 03:45:57;;;;;;;3.03;1.93;;;5.00;99.90;;;;;;5119264;23;20888;-83
2021/12/01 03:48:00;;;;;;;3.17;1.90;;;5.00;99.90;;;;;;5119611;23;20469;-82
2021/12/01 03:50:02;;;;;;;4.53;1.97;;;5.10;99.90;;;;;;5119254;23;20498;-83
2021/12/01 03:52:05;;;;;;;4.80;2.10;;;5.00;99.90;;;;;;5119864;23;20473;-83
2021/12/01 03:54:07;;;;;;;3.67;1.97;;;5.10;99.90;;;;;;5120828;23;20415;-83
2021/12/01 03:56:09;;;;;;;2.67;1.60;;;5.10;99.90;;;;;;5120345;23;20433;-82
2021/12/01 03:58:11;;;;;;;3.03;1.83;;;5.10;99.90;;;;;;5122675;23;20423;-83
2021/12/01 04:00:17;;;;;;;3.47;1.80;;;5.10;99.90;;;;;;5120669;23;20445;-82
2021/12/01 04:02:20;;;;;;;3.00;2.10;;;5.10;99.90;;;;;;5122962;23;20454;-83
2021/12/01 04:04:22;;;;;;;3.30;1.87;;;5.10;99.90;;;;;;5123406;23;20817;-82
2021/12/01 04:06:24;;;;;;;2.87;1.90;;;5.20;99.90;;;;;;5123234;23;20419;-83
2021/12/01 04:08:26;;;;;;;2.67;1.90;;;5.10;99.90;;;;;;5117812;23;20438;-83
2021/12/01 04:10:29;;;;;;;3.27;1.90;;;5.10;99.90;;;;;;5116590;23;20439;-83
2021/12/01 04:12:32;;;;;;;3.20;1.90;;;5.10;99.90;;;;;;5115094;23;20473;-83
2021/12/01 04:14:34;;;;;;;3.33;1.80;;;5.10;99.90;;;;;;5116985;23;20422;-83
2021/12/01 04:16:36;;;;;;;3.67;1.70;;;5.10;99.90;;;;;;5116759;23;20422;-83
2021/12/01 04:18:39;;;;;;;2.60;1.60;;;5.10;99.90;;;;;;5116860;23;20959;-83
2021/12/01 04:20:41;;;;;;;3.93;2.20;;;5.10;99.90;;;;;;5116592;23;20427;-83
2021/12/01 04:22:44;;;;;;;2.80;1.70;;;5.10;99.90;;;;;;5116489;23;20501;-83
2021/12/01 04:24:46;;;;;;;1.90;1.43;;;5.20;99.90;;;;;;5118020;23;20450;-83
2021/12/01 04:26:48;;;;;;;4.10;2.30;;;5.10;99.90;;;;;;5116789;23;20439;-84
2021/12/01 04:28:50;;;;;;;2.37;1.63;;;5.10;99.90;;;;;;5116766;23;20403;-83
2021/12/01 04:30:52;;;;;;;2.43;1.90;;;5.10;99.90;;;;;;5116930;23;20423;-84
2021/12/01 04:32:56;;;;;;;2.43;1.73;;;5.10;99.90;;;;;;5116883;23;20819;-84
2021/12/01 04:34:59;;;;;;;3.17;1.67;;;5.10;99.90;;;;;;5117992;23;20422;-84
2021/12/01 04:37:01;;;;;;;2.10;1.50;;;5.10;99.90;;;;;;5116210;23;20426;-84
2021/12/01 04:39:06;;;;;;;3.30;1.70;;;5.10;99.90;;;;;;5116642;23;20431;-84
2021/12/01 04:41:09;;;;;;;2.97;1.90;;;5.10;99.90;;;;;;5117015;23;20437;-84
2021/12/01 04:43:11;;;;;;;1.83;1.37;;;5.10;99.90;;;;;;5116536;23;20798;-83
2021/12/01 04:45:16;;;;;;;2.17;1.57;;;5.10;99.90;;;;;;5114695;23;20471;-84
2021/12/01 04:47:26;;;;;;;1.97;1.50;;;5.10;99.90;;;;;;5117093;23;20423;-84
2021/12/01 04:49:28;;;;;;;2.43;1.50;;;5.10;99.90;;;;;;5116322;23;20453;-84
2021/12/01 04:51:31;;;;;;;4.20;1.30;;;5.10;99.90;;;;;;5115681;23;21146;-85
2021/12/01 04:53:33;;;;;;;1.43;1.10;;;5.10;99.90;;;;;;5114868;23;20438;-84
2021/12/01 04:55:35;;;;;;;2.03;1.30;;;5.30;99.90;;;;;;5116382;23;20457;-85
2021/12/01 04:57:40;;;;;;;2.33;1.10;;;5.10;99.90;;;;;;5116607;23;20769;-85
2021/12/01 04:59:42;;;;;;;2.20;1.20;;;5.10;99.90;;;;;;5114469;23;20490;-85
2021/12/01 05:01:44;;;;;;;1.93;1.13;;;5.10;99.90;;;;;;5115984;23;20738;-85
2021/12/01 05:03:46;;;;;;;1.87;1.10;;;5.10;99.90;;;;;;5115851;23;20477;-85
2021/12/01 05:05:48;;;;;;;2.40;1.00;;;5.10;99.90;;;;;;5115495;23;20430;-85
2021/12/01 05:07:51;;;;;;;1.80;0.90;;;5.20;99.90;;;;;;5117524;23;20925;-85
2021/12/01 05:09:54;;;;;;;1.17;0.80;;;5.20;99.90;;;;;;5117136;23;20425;-85
2021/12/01 05:11:56;;;;;;;1.13;0.90;;;5.30;99.90;;;;;;5114525;23;20920;-85
2021/12/01 05:13:58;;;;;;;1.20;0.50;;;5.10;99.90;;;;;;5116442;23;20450;-85
2021/12/01 05:16:00;;;;;;;0.90;0.67;;;5.30;99.90;;;;;;5116572;23;20450;-85
2021/12/01 05:18:01;;;;;;;1.03;0.60;;;5.10;99.90;;;;;;5115226;23;20426;-85
2021/12/01 05:20:06;;;;;;;1.00;0.60;;;5.20;99.90;;;;;;5114546;23;20912;-85
2021/12/01 05:22:09;;;;;;;1.57;0.97;;;5.20;99.90;;;;;;5115169;23;21031;-85
2021/12/01 05:24:12;;;;;;;1.07;0.60;;;5.20;99.90;;;;;;5115706;23;20473;-85
2021/12/01 05:26:15;;;;;;;0.60;0.50;;;5.20;99.90;;;;;;5116546;23;20781;-85
2021/12/01 05:28:17;;;;;;;1.20;0.60;;;5.20;99.90;;;;;;5116188;23;20796;-85
2021/12/01 05:30:20;;;;;;;0.93;0.50;;;5.20;99.90;;;;;;5114230;23;20559;-85
2021/12/01 05:32:22;;;;;;;1.17;0.70;;;5.20;99.90;;;;;;5115742;23;20441;-85
2021/12/01 05:34:24;;;;;;;0.77;0.50;;;5.30;99.90;;;;;;5115853;23;20449;-84
2021/12/01 05:36:26;;;;;;;1.63;0.67;;;5.20;99.90;;;;;;5116890;23;20418;-85
2021/12/01 05:38:28;;;;;;;0.50;0.50;;;5.20;99.90;;;;;;5117130;23;20740;-85
2021/12/01 05:40:32;;;;;;;1.23;0.70;;;5.20;99.90;;;;;;5116245;23;20506;-85
2021/12/01 05:42:33;;;;;;;2.13;0.87;;;5.20;99.90;;;;;;5117029;23;20517;-85
2021/12/01 05:44:36;;;;;;;0.60;0.60;;;5.20;99.90;;;;;;5116726;23;20847;-85
2021/12/01 05:46:38;;;;;;;1.07;0.53;;;5.20;99.90;;;;;;5115710;23;20409;-85
2021/12/01 05:48:40;;;;;;;1.00;0.60;;;5.30;99.90;;;;;;5117008;23;20717;-85
2021/12/01 05:50:42;;;;;;;1.30;0.60;;;5.20;99.90;;;;;;5117013;23;20501;-85
2021/12/01 05:52:44;;;;;;;0.40;0.40;;;5.30;99.90;;;;;;5117373;23;20450;-85
2021/12/01 05:54:50;;;;;;;0.50;0.50;;;5.20;99.90;;;;;;5116934;23;20453;-85
2021/12/01 05:56:53;;;;;;;0.57;0.50;;;5.30;99.90;;;;;;5117210;23;20426;-85
2021/12/01 05:58:55;;;;;;;0.63;0.50;;;5.30;99.90;;;;;;5116838;23;20477;-86
2021/12/01 06:00:57;;;;;;;0.53;0.53;;;5.30;99.90;;;;;;5116462;23;20446;-85
2021/12/01 06:03:01;;;;;;;2.13;0.60;;;5.20;99.90;;;;;;5116466;23;20778;-84
2021/12/01 06:05:05;;;;;;;1.23;0.70;;;5.30;99.90;;;;;;5117134;23;20418;-85
2021/12/01 06:07:07;;;;;;;1.13;0.70;;;5.20;99.90;;;;;;5116071;23;20743;-85
2021/12/01 06:09:09;;;;;;;0.70;0.67;;;5.20;99.90;;;;;;5116007;23;20446;-85
2021/12/01 06:11:11;;;;;;;1.60;0.70;;;5.20;99.90;;;;;;5116206;23;20414;-89
2021/12/01 06:13:17;;;;;;;1.50;0.63;;;5.30;99.90;;;;;;5116089;23;20505;-88
2021/12/01 06:15:19;;;;;;;1.33;0.70;;;5.20;99.90;;;;;;5116853;23;20407;-86
2021/12/01 06:17:22;;;;;;;1.00;0.70;;;5.20;99.90;;;;;;5116221;23;20410;-86
2021/12/01 06:19:24;;;;;;;0.73;0.50;;;5.30;99.90;;;;;;5116749;23;20960;-85
2021/12/01 06:21:26;;;;;;;2.40;0.80;;;5.20;99.90;;;;;;5117097;23;20399;-85
2021/12/01 06:23:28;;;;;;;0.77;0.77;;;5.20;99.90;;;;;;5117361;23;20465;-85
2021/12/01 06:25:30;;;;;;;1.60;0.70;;;5.30;99.90;;;;;;5117570;23;20442;-85
2021/12/01 06:27:32;;;;;;;1.33;0.80;;;5.20;99.90;;;;;;5117380;23;20506;-85
2021/12/01 06:29:36;;;;;;;1.53;0.90;;;5.30;99.90;;;;;;5117536;23;20803;-85
2021/12/01 06:31:38;;;;;;;1.10;0.60;;;5.30;99.90;;;;;;5116607;23;20815;-84
2021/12/01 06:33:40;;;;;;;1.77;0.93;;;5.30;99.90;;;;;;5116329;23;20462;-85
2021/12/01 06:35:47;;;;;;;1.10;0.83;;;5.30;99.90;;;;;;5116433;23;20422;-85
2021/12/01 06:37:54;;;;;;;1.10;1.00;;;5.20;99.90;;;;;;5117257;23;20486;-85
2021/12/01 06:39:56;;;;;;;1.10;0.70;;;5.30;99.90;;;;;;5116956;23;20406;-85
2021/12/01 06:41:58;;;;;;;1.10;0.77;;;5.40;99.90;;;;;;5118645;23;20446;-85
2021/12/01 06:44:01;;;;;;;1.93;0.80;;;5.30;99.90;;;;;;5118488;23;20514;-85
2021/12/01 06:46:04;;;;;;;0.90;0.70;;;5.20;99.90;;;;;;5116497;23;20442;-85
2021/12/01 06:48:06;;;;;;;0.70;0.63;;;5.30;99.90;;;;;;5117487;23;20409;-85
2021/12/01 06:50:09;;;;;;;1.00;0.70;;;5.30;99.90;;;;;;5117588;23;20457;-85
2021/12/01 06:52:11;;;;;;;1.03;0.70;;;5.20;99.90;;;;;;5118453;23;20853;-85
2021/12/01 06:54:13;;;;;;;0.73;0.57;;;5.30;99.90;;;;;;5118430;23;20415;-85
2021/12/01 06:56:16;;;;;;;1.70;0.73;;;5.20;99.90;;;;;;5118854;23;20437;-85
2021/12/01 06:58:18;;;;;;;0.90;0.63;;;5.20;99.90;;;;;;5118714;23;20918;-84
2021/12/01 07:00:21;;;;;;;0.77;0.60;;;5.20;99.90;;;;;;5119292;23;20422;-85
2021/12/01 07:02:24;;;;;;;0.70;0.50;;;5.20;99.90;;;;;;5118152;23;20438;-85
2021/12/01 07:04:26;;;;;;;0.60;0.60;;;5.50;99.90;;;;;;5118083;23;20477;-85
2021/12/01 07:06:28;;;;;;;0.90;0.60;;;5.20;99.90;;;;;;5118335;23;20446;-85
2021/12/01 07:08:30;;;;;;;0.70;0.70;;;5.20;99.90;;;;;;5116818;23;20751;-86
2021/12/01 07:10:32;;;;;;;1.00;0.70;;;5.40;99.90;;;;;;5117675;23;20431;-86
2021/12/01 07:12:34;;;;;;;0.73;0.67;;;5.20;99.90;;;;;;5117537;23;20419;-86
2021/12/01 07:14:36;;;;;;;0.63;0.63;;;5.40;99.90;;;;;;5117250;23;20446;-86
2021/12/01 07:16:38;;;;;;;0.80;0.70;;;5.20;99.90;;;;;;5118043;23;21053;-86
2021/12/01 07:18:41;;;;;;;2.40;0.90;;;5.20;99.90;;;;;;5117135;23;20433;-86
2021/12/01 07:20:45;;;;;;;1.27;0.80;;;5.20;99.90;;;;;;5114035;23;20461;-86
2021/12/01 07:22:47;;;;;;;1.17;0.97;;;5.50;99.90;;;;;;5110439;23;20485;-85
2021/12/01 07:24:49;;;;;;;1.20;1.07;;;5.20;99.90;;;;;;5111638;23;20501;-85
2021/12/01 07:26:52;;;;;;;0.80;0.80;;;5.20;99.90;;;;;;5111771;23;20606;-86
2021/12/01 07:28:54;;;;;;;1.87;1.00;;;5.20;99.90;;;;;;5110926;23;20592;-86
2021/12/01 07:30:56;;;;;;;1.10;0.90;;;5.30;99.90;;;;;;5111833;23;20437;-86
2021/12/01 07:32:58;;;;;;;1.00;0.90;;;5.20;99.90;;;;;;5111665;23;20832;-86
2021/12/01 07:35:01;;;;;;;1.30;1.03;;;5.30;99.90;;;;;;5111040;23;20494;-87
2021/12/01 07:37:03;;;;;;;1.10;1.00;;;5.30;99.90;;;;;;5112101;23;20497;-86
2021/12/01 07:39:05;;;;;;;1.23;1.00;;;5.20;99.90;;;;;;5112224;23;20426;-89
2021/12/01 07:41:07;;;;;;;1.10;0.90;;;5.30;99.90;;;;;;5113307;23;20454;-88
2021/12/01 07:43:09;;;;;;;1.07;0.97;;;5.30;99.90;;;;;;5113050;23;20474;-88
2021/12/01 07:45:12;;;;;;;1.00;0.90;;;5.40;99.90;;;;;;5108916;23;20546;-89
2021/12/01 07:47:14;;;;;;;2.73;1.00;;;5.30;99.90;;;;;;5111713;23;20475;-88
2021/12/01 07:49:19;;;;;;;1.27;1.10;;;5.30;99.90;;;;;;5111009;23;20464;-88
2021/12/01 07:51:22;;;;;;;1.13;0.93;;;5.30;99.90;;;;;;5110840;23;20890;-87
2021/12/01 07:53:24;;;;;;;1.50;1.10;;;5.40;99.90;;;;;;5112916;23;20767;-88
2021/12/01 07:55:26;;;;;;;1.77;1.30;;;5.30;99.90;;;;;;5112855;23;20817;-89
2021/12/01 07:57:28;;;;;;;1.20;1.10;;;5.30;99.90;;;;;;5113032;23;20983;-88
2021/12/01 07:59:30;;;;;;;1.17;1.00;;;5.50;99.90;;;;;;5113387;23;20399;-89
2021/12/01 08:01:32;;;;;;;1.70;1.20;;;5.30;99.90;;;;;;5112230;23;20477;-89
2021/12/01 08:03:34;;;;;;;2.10;1.30;;;5.40;99.90;;;;;;5112235;23;20521;-89
2021/12/01 08:05:36;;;;;;;2.53;1.40;;;5.40;99.90;;;;;;5110408;23;20937;-89
2021/12/01 08:07:40;;;;;;;2.10;1.40;;;5.40;99.90;;;;;;5112261;23;20902;-89
2021/12/01 08:09:42;;;;;;;1.30;1.10;;;5.40;99.90;;;;;;5112413;23;20426;-88
2021/12/01 08:11:44;;;;;;;1.63;1.20;;;5.60;99.90;;;;;;5112336;23;20454;-88
2021/12/01 08:13:46;;;;;;;1.30;1.00;;;5.40;99.90;;;;;;5113158;23;20427;-88
2021/12/01 08:15:48;;;;;;;1.37;1.03;;;5.40;99.90;;;;;;5112474;23;21054;-89
2021/12/01 08:17:51;;;;;;;1.33;1.10;;;5.40;99.90;;;;;;5112882;23;20426;-88
2021/12/01 08:19:53;;;;;;;2.00;1.10;;;5.40;99.90;;;;;;5112223;23;20755;-89
2021/12/01 08:21:55;;;;;;;1.80;1.30;;;5.50;99.90;;;;;;5113022;23;20445;-89
2021/12/01 08:23:58;;;;;;;1.13;1.00;;;5.50;99.90;;;;;;5128577;23;20465;-78
2021/12/01 08:26:00;;;;;;;1.77;1.23;;;5.50;99.90;;;;;;5134911;23;20697;-77
2021/12/01 08:28:03;;;;;;;1.10;1.00;;;5.50;99.90;;;;;;5135814;23;20512;-75
2021/12/01 08:30:06;;;;;;;1.77;1.10;;;5.50;99.90;;;;;;5135344;23;20419;-78
2021/12/01 08:32:08;;;;;;;1.23;1.00;;;5.50;99.90;;;;;;5136042;23;20810;-76
2021/12/01 08:34:13;;;;;;;1.70;1.13;;;5.50;99.90;;;;;;5110682;23;20425;-78
2021/12/01 08:36:15;;;;;;;1.37;1.20;;;5.50;99.90;;;;;;5111559;23;20461;-80
2021/12/01 08:38:17;;;;;;;1.20;1.10;;;5.50;99.90;;;;;;5111423;23;20449;-75
2021/12/01 08:40:20;;;;;;;2.27;1.07;;;5.60;99.90;;;;;;5110231;23;20434;-78
2021/12/01 08:42:24;;;;;;;1.30;1.20;;;5.60;99.90;;;;;;5110371;23;20501;-75
2021/12/01 08:44:26;;;;;;;1.53;1.30;;;5.60;99.90;;;;;;5111041;23;20478;-79
2021/12/01 08:46:28;;;;;;;1.23;1.10;;;5.60;99.90;;;;;;5108897;23;20581;-76
2021/12/01 08:48:30;;;;;;;1.90;1.33;;;5.60;99.90;;;;;;5111224;23;20488;-80
2021/12/01 08:50:34;;;;;;;1.83;1.37;;;5.60;99.90;;;;;;5110681;23;20423;-78
2021/12/01 08:52:36;;;;;;;1.30;1.00;;;5.60;99.90;;;;;;5110227;23;20455;-78
2021/12/01 08:54:39;;;;;;;1.30;1.00;;;5.60;99.90;;;;;;5110323;23;20510;-77
2021/12/01 08:56:43;;;;;;;2.57;1.30;;;5.60;99.90;;;;;;5110592;23;20427;-77
2021/12/01 08:58:45;;;;;;;1.60;1.30;;;5.60;99.90;;;;;;5110434;23;20422;-76
2021/12/01 09:00:48;;;;;;;1.47;1.10;;;5.60;99.90;;;;;;5110469;23;20852;-76
2021/12/01 09:02:50;;;;;;;1.67;1.20;;;5.70;99.90;;;;;;5109771;23;20447;-79
2021/12/01 09:04:52;;;;;;;1.50;1.20;;;5.70;99.90;;;;;;5110095;23;20454;-79
2021/12/01 09:06:54;;;;;;;1.70;1.10;;;5.70;99.90;;;;;;5111308;23;20430;-77
2021/12/01 09:08:56;;;;;;;1.70;1.10;;;5.70;99.90;;;;;;5114177;23;21028;-77
2021/12/01 09:11:02;;;;;;;1.23;0.90;;;5.70;99.90;;;;;;5112857;23;20909;-78
2021/12/01 09:13:07;;;;;;;2.07;1.13;;;5.70;99.90;;;;;;5111024;23;20530;-75
2021/12/01 09:15:09;;;;;;;3.20;1.07;;;5.70;99.90;;;;;;5111320;23;20812;-76
2021/12/01 09:17:12;;;;;;;1.10;1.00;;;5.70;99.90;;;;;;5111331;23;20487;-76
2021/12/01 09:19:15;;;;;;;1.87;1.20;;;5.80;99.90;;;;;;5110909;23;20514;-79
2021/12/01 09:21:18;;;;;;;1.57;0.97;;;5.80;99.90;;;;;;5109782;23;20502;-78
2021/12/01 09:23:20;;;;;;;1.00;0.80;;;5.80;99.90;;;;;;5110072;23;20454;-76
2021/12/01 09:25:23;;;;;;;0.80;0.80;;;5.80;99.90;;;;;;5111129;23;20844;-76
2021/12/01 09:27:25;;;;;;;1.03;0.93;;;5.80;99.90;;;;;;5112272;23;20458;-77
2021/12/01 09:29:29;;;;;;;1.43;1.07;;;5.80;99.90;;;;;;5112666;23;20430;-78
2021/12/01 09:31:31;;;;;;;0.60;0.60;;;5.80;99.90;;;;;;5112938;23;20424;-77
2021/12/01 09:33:33;;;;;;;1.57;0.73;;;5.80;99.90;;;;;;5111958;23;20466;-78
2021/12/01 09:35:35;;;;;;;0.83;0.60;;;5.80;99.90;;;;;;5111927;23;20454;-79
2021/12/01 09:37:37;;;;;;;1.40;0.90;;;5.90;99.90;;;;;;5110119;23;21041;-76
2021/12/01 09:39:42;;;;;;;0.70;0.70;;;5.80;99.90;;;;;;5109764;23;20495;-76
2021/12/01 09:41:44;;;;;;;1.03;0.80;;;5.90;99.90;;;;;;5109344;23;20950;-75
2021/12/01 09:43:46;;;;;;;1.30;0.90;;;5.90;99.90;;;;;;5108566;23;20548;-76
2021/12/01 09:45:50;;;;;;;1.20;0.97;;;5.90;99.90;;;;;;5111118;23;20514;-78
2021/12/01 09:47:52;;;;;;;0.70;0.70;;;5.90;99.90;;;;;;5113061;23;20617;-78
2021/12/01 09:49:54;;;;;;;0.70;0.60;;;5.90;99.90;;;;;;5112992;23;20459;-77
2021/12/01 09:51:56;;;;;;;1.47;0.80;;;5.90;99.90;;;;;;5113704;23;20499;-77
2021/12/01 09:54:00;;;;;;;1.10;1.00;;;5.90;99.90;;;;;;5112832;23;20434;-80
2021/12/01 09:56:03;;;;;;;0.90;0.80;;;5.90;99.90;;;;;;5111274;23;20424;-77
2021/12/01 09:58:07;;;;;;;1.40;0.70;;;6.00;99.90;;;;;;5112262;23;20424;-80
2021/12/01 10:00:10;;;;;;;0.83;0.73;;;5.90;99.90;;;;;;5111796;23;20460;-79
2021/12/01 10:02:13;;;;;;;1.00;0.90;;;6.00;99.90;;;;;;5112589;23;20805;-78
2021/12/01 10:04:15;;;;;;;4.30;0.90;;;6.00;99.90;;;;;;5112605;23;20468;-78
2021/12/01 10:06:19;;;;;;;1.77;0.87;;;6.00;99.90;;;;;;5113087;23;21076;-79
2021/12/01 10:08:23;;;;;;;0.60;0.60;;;6.00;99.90;;;;;;5112754;23;20936;-80
2021/12/01 10:10:25;;;;;;;0.73;0.70;;;6.00;99.90;;;;;;5111462;23;20455;-80
2021/12/01 10:12:44;;;;;;;1.43;0.80;;;6.00;99.90;;;;;;5111786;23;20934;-80
2021/12/01 10:14:47;;;;;;;1.10;0.80;;;6.00;99.90;;;;;;5111739;23;20935;-76
2021/12/01 10:16:54;;;;;;;0.87;0.70;;;6.00;99.90;;;;;;5110790;23;20527;-80
2021/12/01 10:18:58;;;;;;;2.00;0.70;;;6.00;99.90;;;;;;5112866;23;20439;-77
2021/12/01 10:21:05;;;;;;;2.13;0.67;;;6.00;99.90;;;;;;5113319;23;20431;-79
2021/12/01 10:23:09;;;;;;;0.90;0.60;;;6.00;99.90;;;;;;5112688;23;20472;-74
2021/12/01 10:25:29;;;;;;;0.93;0.70;;;6.10;99.90;;;;;;5113158;23;20858;-77
2021/12/01 10:27:38;;;;;;;1.50;0.60;;;6.10;99.90;;;;;;5112419;23;20554;-76
2021/12/01 10:29:45;;;;;;;0.90;0.70;;;6.10;99.90;;;;;;5113098;23;20399;-76
2021/12/01 10:31:51;;;;;;;0.87;0.60;;;6.10;99.90;;;;;;5111427;23;20412;-78
2021/12/01 10:33:53;;;;;;;0.60;0.60;;;6.10;99.90;;;;;;5110858;23;20485;-77
2021/12/01 10:35:59;;;;;;;0.80;0.77;;;6.10;99.90;;;;;;5112424;23;20815;-76
2021/12/01 10:38:01;;;;;;;1.80;0.60;;;6.10;99.90;;;;;;5112233;23;20475;-78
2021/12/01 10:40:09;;;;;;;0.80;0.67;;;6.10;99.90;;;;;;5110953;23;20421;-77
2021/12/01 10:42:14;;;;;;;0.67;0.60;;;6.10;99.90;;;;;;5110887;23;20409;-77
2021/12/01 10:44:18;;;;;;;1.33;0.90;;;6.10;99.90;;;;;;5111916;23;20407;-77
2021/12/01 10:46:20;;;;;;;2.17;0.77;;;6.10;99.90;;;;;;5111910;23;20514;-77
2021/12/01 10:48:25;;;;;;;1.00;0.80;;;6.10;99.90;;;;;;5111681;23;20436;-76
2021/12/01 10:50:29;;;;;;;1.10;0.90;;;6.10;99.90;;;;;;5111375;23;20492;-76
2021/12/01 10:52:35;;;;;;;1.43;0.90;;;6.20;99.90;;;;;;5111846;23;20470;-78
2021/12/01 10:54:37;;;;;;;1.00;0.70;;;6.10;99.90;;;;;;5112239;23;20515;-76
2021/12/01 10:56:39;;;;;;;0.70;0.67;;;6.20;99.90;;;;;;5110648;23;20447;-77
2021/12/01 10:58:42;;;;;;;0.87;0.73;;;6.20;99.90;;;;;;5112185;23;20556;-77